sensor_id;sensor_type;location;lat;lon;timestamp;pressure;altitude;pressure_sealevel;temperature;humidity
22181;BME280;11256;50.830;12.834;2022-08-18T00:02:22;97106.66;;;26.81;39.67
22181;BME280;11256;50.830;12.834;2022-08-18T00:07:27;97095.16;;;26.76;39.91
22181;BME280;11256;50.830;12.834;2022-08-18T00:12:37;97096.34;;;26.68;40.08
22181;BME280;11256;50.830;12.834;2022-08-18T00:17:37;97095.56;;;26.57;40.29
22181;BME280;11256;50.830;12.834;2022-08-18T00:22:38;97072.94;;;26.48;40.37
22181;BME280;11256;50.830;12.834;2022-08-18T00:27:41;97087.63;;;26.45;40.51
22181;BME280;11256;50.830;12.834;2022-08-18T00:32:46;97081.66;;;26.36;40.66
22181;BME280;11256;50.830;12.834;2022-08-18T00:37:47;97092.78;;;26.32;40.82
22181;BME280;11256;50.830;12.834;2022-08-18T00:42:51;97085.22;;;26.19;40.69
22181;BME280;11256;50.830;12.834;2022-08-18T00:47:52;97101.91;;;26.19;40.90
22181;BME280;11256;50.830;12.834;2022-08-18T00:53:00;97101.91;;;26.12;40.95
22181;BME280;11256;50.830;12.834;2022-08-18T00:58:07;97101.50;;;26.06;40.89
22181;BME280;11256;50.830;12.834;2022-08-18T01:03:12;97094.34;;;26.02;41.17
22181;BME280;11256;50.830;12.834;2022-08-18T01:08:15;97093.53;;;25.94;41.28
22181;BME280;11256;50.830;12.834;2022-08-18T01:13:16;97097.09;;;25.88;41.29
22181;BME280;11256;50.830;12.834;2022-08-18T01:18:17;97103.78;;;25.80;41.56
22181;BME280;11256;50.830;12.834;2022-08-18T01:23:36;97088.69;;;25.67;41.52
22181;BME280;11256;50.830;12.834;2022-08-18T01:28:40;97107.69;;;25.58;41.89
22181;BME280;11256;50.830;12.834;2022-08-18T01:33:43;97102.91;;;25.51;42.10
22181;BME280;11256;50.830;12.834;2022-08-18T01:38:46;97097.72;;;25.39;42.30
22181;BME280;11256;50.830;12.834;2022-08-18T01:43:47;97110.75;;;25.32;42.38
22181;BME280;11256;50.830;12.834;2022-08-18T01:48:48;97109.91;;;25.24;42.65
22181;BME280;11256;50.830;12.834;2022-08-18T01:53:49;97109.09;;;25.17;42.77
22181;BME280;11256;50.830;12.834;2022-08-18T01:58:49;97084.44;;;25.01;42.71
22181;BME280;11256;50.830;12.834;2022-08-18T02:03:52;97105.41;;;24.99;42.96
22181;BME280;11256;50.830;12.834;2022-08-18T02:08:54;97106.16;;;24.89;43.07
22181;BME280;11256;50.830;12.834;2022-08-18T02:13:54;97108.13;;;24.85;43.11
22181;BME280;11256;50.830;12.834;2022-08-18T02:18:55;97091.00;;;24.72;43.22
22181;BME280;11256;50.830;12.834;2022-08-18T02:23:55;97100.53;;;24.75;43.21
22181;BME280;11256;50.830;12.834;2022-08-18T02:28:55;97104.84;;;24.65;43.53
22181;BME280;11256;50.830;12.834;2022-08-18T02:33:56;97090.13;;;24.58;43.50
22181;BME280;11256;50.830;12.834;2022-08-18T02:38:56;97083.25;;;24.45;43.73
22181;BME280;11256;50.830;12.834;2022-08-18T02:43:57;97080.09;;;24.43;44.16
22181;BME280;11256;50.830;12.834;2022-08-18T02:48:59;97075.69;;;24.35;44.03
22181;BME280;11256;50.830;12.834;2022-08-18T02:53:59;97082.72;;;24.29;44.16
22181;BME280;11256;50.830;12.834;2022-08-18T02:59:03;97083.88;;;24.24;44.07
22181;BME280;11256;50.830;12.834;2022-08-18T03:04:06;97085.06;;;24.20;44.22
22181;BME280;11256;50.830;12.834;2022-08-18T03:09:08;97068.75;;;24.11;44.40
22181;BME280;11256;50.830;12.834;2022-08-18T03:14:09;97086.16;;;24.12;45.38
22181;BME280;11256;50.830;12.834;2022-08-18T03:19:10;97078.19;;;24.07;44.92
22181;BME280;11256;50.830;12.834;2022-08-18T03:24:14;97073.06;;;24.05;44.71
22181;BME280;11256;50.830;12.834;2022-08-18T03:29:14;97058.72;;;23.93;44.96
22181;BME280;11256;50.830;12.834;2022-08-18T03:34:17;97072.59;;;24.00;44.88
22181;BME280;11256;50.830;12.834;2022-08-18T03:39:19;97062.66;;;23.92;44.85
22181;BME280;11256;50.830;12.834;2022-08-18T03:44:22;97057.34;;;23.80;44.87
22181;BME280;11256;50.830;12.834;2022-08-18T03:49:23;97066.84;;;23.79;45.21
22181;BME280;11256;50.830;12.834;2022-08-18T03:54:24;97062.81;;;23.73;45.21
22181;BME280;11256;50.830;12.834;2022-08-18T03:59:25;97069.13;;;23.70;45.37
22181;BME280;11256;50.830;12.834;2022-08-18T04:04:27;97066.72;;;23.65;45.56
22181;BME280;11256;50.830;12.834;2022-08-18T04:09:28;97065.06;;;23.60;45.59
22181;BME280;11256;50.830;12.834;2022-08-18T04:14:29;97062.19;;;23.50;45.84
22181;BME280;11256;50.830;12.834;2022-08-18T04:19:31;97076.44;;;23.52;45.97
22181;BME280;11256;50.830;12.834;2022-08-18T04:24:33;97065.00;;;23.53;46.01
22181;BME280;11256;50.830;12.834;2022-08-18T04:29:34;97068.09;;;23.48;46.01
22181;BME280;11256;50.830;12.834;2022-08-18T04:34:34;97062.09;;;23.39;46.00
22181;BME280;11256;50.830;12.834;2022-08-18T04:39:35;97069.63;;;23.42;46.06
22181;BME280;11256;50.830;12.834;2022-08-18T04:44:36;97072.00;;;23.44;45.98
22181;BME280;11256;50.830;12.834;2022-08-18T04:49:37;97067.22;;;23.41;45.83
22181;BME280;11256;50.830;12.834;2022-08-18T04:54:38;97078.28;;;23.41;45.87
22181;BME280;11256;50.830;12.834;2022-08-18T04:59:43;97084.25;;;23.43;45.91
22181;BME280;11256;50.830;12.834;2022-08-18T05:04:44;97083.03;;;23.40;45.98
22181;BME280;11256;50.830;12.834;2022-08-18T05:09:48;97087.44;;;23.45;45.66
22181;BME280;11256;50.830;12.834;2022-08-18T05:14:49;97096.06;;;23.40;51.96
22181;BME280;11256;50.830;12.834;2022-08-18T05:19:51;97091.19;;;23.30;52.31
22181;BME280;11256;50.830;12.834;2022-08-18T05:24:51;97092.91;;;23.38;47.39
22181;BME280;11256;50.830;12.834;2022-08-18T05:29:51;97101.00;;;23.57;46.70
22181;BME280;11256;50.830;12.834;2022-08-18T05:34:52;97108.47;;;23.53;46.71
22181;BME280;11256;50.830;12.834;2022-08-18T05:40:02;97106.16;;;23.58;46.63
22181;BME280;11256;50.830;12.834;2022-08-18T05:45:10;97102.25;;;23.63;46.26
22181;BME280;11256;50.830;12.834;2022-08-18T05:50:15;97112.66;;;23.73;45.99
22181;BME280;11256;50.830;12.834;2022-08-18T05:55:23;97113.13;;;23.78;45.95
22181;BME280;11256;50.830;12.834;2022-08-18T06:00:50;97117.50;;;23.83;45.77
22181;BME280;11256;50.830;12.834;2022-08-18T06:05:56;97132.69;;;23.96;45.83
22181;BME280;11256;50.830;12.834;2022-08-18T06:11:00;97133.16;;;24.01;45.93
22181;BME280;11256;50.830;12.834;2022-08-18T06:16:11;97130.03;;;24.06;45.97
22181;BME280;11256;50.830;12.834;2022-08-18T06:26:33;97131.09;;;24.35;46.37
22181;BME280;11256;50.830;12.834;2022-08-18T06:37:24;97174.78;;;24.52;46.34
22181;BME280;11256;50.830;12.834;2022-08-18T06:42:28;97180.41;;;24.59;46.40
22181;BME280;11256;50.830;12.834;2022-08-18T06:47:39;97192.72;;;24.65;46.25
22181;BME280;11256;50.830;12.834;2022-08-18T06:52:52;97199.66;;;24.88;45.78
22181;BME280;11256;50.830;12.834;2022-08-18T06:57:56;97204.88;;;24.97;45.80
22181;BME280;11256;50.830;12.834;2022-08-18T07:03:08;97204.88;;;25.00;45.84
22181;BME280;11256;50.830;12.834;2022-08-18T07:08:29;97201.38;;;25.07;45.69
22181;BME280;11256;50.830;12.834;2022-08-18T07:13:37;97209.00;;;25.24;45.41
22181;BME280;11256;50.830;12.834;2022-08-18T07:18:38;97193.25;;;25.35;45.66
22181;BME280;11256;50.830;12.834;2022-08-18T07:23:38;97200.88;;;25.52;45.60
22181;BME280;11256;50.830;12.834;2022-08-18T07:28:43;97207.72;;;25.68;45.66
22181;BME280;11256;50.830;12.834;2022-08-18T07:33:55;97203.78;;;25.80;45.37
22181;BME280;11256;50.830;12.834;2022-08-18T07:39:10;97205.38;;;25.84;45.85
22181;BME280;11256;50.830;12.834;2022-08-18T07:44:24;97216.09;;;25.89;45.08
22181;BME280;11256;50.830;12.834;2022-08-18T07:49:31;97205.44;;;25.95;45.38
22181;BME280;11256;50.830;12.834;2022-08-18T07:54:53;97195.97;;;26.10;45.09
22181;BME280;11256;50.830;12.834;2022-08-18T08:00:06;97199.19;;;26.33;45.66
22181;BME280;11256;50.830;12.834;2022-08-18T08:06:13;97207.22;;;26.59;45.90
22181;BME280;11256;50.830;12.834;2022-08-18T08:16:04;97224.72;;;26.91;45.15
22181;BME280;11256;50.830;12.834;2022-08-18T08:21:10;97214.38;;;26.88;45.54
22181;BME280;11256;50.830;12.834;2022-08-18T08:31:48;97226.66;;;27.01;44.14
22181;BME280;11256;50.830;12.834;2022-08-18T08:36:54;97226.66;;;27.01;44.32
22181;BME280;11256;50.830;12.834;2022-08-18T08:42:08;97223.91;;;27.08;44.47
22181;BME280;11256;50.830;12.834;2022-08-18T08:47:24;97204.81;;;27.06;44.30
22181;BME280;11256;50.830;12.834;2022-08-18T08:57:49;97221.50;;;27.13;44.25
22181;BME280;11256;50.830;12.834;2022-08-18T09:02:53;97228.69;;;27.18;44.31
22181;BME280;11256;50.830;12.834;2022-08-18T09:08:17;97215.16;;;27.13;44.25
22181;BME280;11256;50.830;12.834;2022-08-18T09:13:46;97204.81;;;27.17;44.06
22181;BME280;11256;50.830;12.834;2022-08-18T09:19:04;97192.88;;;27.13;44.15
22181;BME280;11256;50.830;12.834;2022-08-18T09:24:23;97177.41;;;27.19;43.93
22181;BME280;11256;50.830;12.834;2022-08-18T09:29:47;97182.91;;;27.33;44.07
22181;BME280;11256;50.830;12.834;2022-08-18T09:34:59;97204.81;;;27.31;44.03
22181;BME280;11256;50.830;12.834;2022-08-18T09:40:21;97172.56;;;27.37;44.08
22181;BME280;11256;50.830;12.834;2022-08-18T09:45:53;97158.66;;;27.33;44.26
22181;BME280;11256;50.830;12.834;2022-08-18T09:55:56;97180.09;;;27.47;44.02
22181;BME280;11256;50.830;12.834;2022-08-18T10:01:30;97177.69;;;27.49;44.03
22181;BME280;11256;50.830;12.834;2022-08-18T10:06:35;97172.09;;;27.56;44.13
22181;BME280;11256;50.830;12.834;2022-08-18T10:11:46;97199.97;;;27.52;44.32
22181;BME280;11256;50.830;12.834;2022-08-18T10:17:19;97213.50;;;27.54;44.08
22181;BME280;11256;50.830;12.834;2022-08-18T10:22:43;97197.56;;;27.61;44.25
22181;BME280;11256;50.830;12.834;2022-08-18T10:27:52;97193.56;;;27.66;44.10
22181;BME280;11256;50.830;12.834;2022-08-18T10:32:53;97198.34;;;27.58;44.04
22181;BME280;11256;50.830;12.834;2022-08-18T10:37:54;97212.66;;;27.64;44.11
22181;BME280;11256;50.830;12.834;2022-08-18T10:43:10;97219.03;;;27.61;44.19
22181;BME280;11256;50.830;12.834;2022-08-18T10:53:36;97243.69;;;27.66;44.68
22181;BME280;11256;50.830;12.834;2022-08-18T11:09:22;97163.44;;;27.40;45.83
22181;BME280;11256;50.830;12.834;2022-08-18T11:19:38;97190.91;;;27.24;45.93
22181;BME280;11256;50.830;12.834;2022-08-18T11:24:43;97192.88;;;27.13;45.69
22181;BME280;11256;50.830;12.834;2022-08-18T11:29:43;97213.94;;;27.03;45.92
22181;BME280;11256;50.830;12.834;2022-08-18T11:40:00;97230.25;;;26.70;49.17
22181;BME280;11256;50.830;12.834;2022-08-18T11:45:22;97226.28;;;26.74;46.89
22181;BME280;11256;50.830;12.834;2022-08-18T11:50:31;97229.88;;;26.75;46.74
22181;BME280;11256;50.830;12.834;2022-08-18T11:55:31;97212.00;;;26.97;46.41
22181;BME280;11256;50.830;12.834;2022-08-18T12:05:50;97235.84;;;26.94;46.31
22181;BME280;11256;50.830;12.834;2022-08-18T12:11:17;97230.25;;;27.08;46.39
22181;BME280;11256;50.830;12.834;2022-08-18T12:16:40;97237.81;;;27.22;46.34
22181;BME280;11256;50.830;12.834;2022-08-18T12:21:51;97245.34;;;27.35;46.60
22181;BME280;11256;50.830;12.834;2022-08-18T12:26:52;97223.88;;;27.36;46.18
22181;BME280;11256;50.830;12.834;2022-08-18T12:31:54;97209.97;;;27.36;46.14
22181;BME280;11256;50.830;12.834;2022-08-18T12:36:56;97216.31;;;27.36;46.17
22181;BME280;11256;50.830;12.834;2022-08-18T12:41:56;97210.34;;;27.48;46.29
22181;BME280;11256;50.830;12.834;2022-08-18T12:46:57;97214.31;;;27.47;46.06
22181;BME280;11256;50.830;12.834;2022-08-18T12:51:59;97203.16;;;27.47;45.85
22181;BME280;11256;50.830;12.834;2022-08-18T12:57:01;97174.53;;;27.50;45.94
22181;BME280;11256;50.830;12.834;2022-08-18T13:02:02;97159.34;;;27.65;46.07
22181;BME280;11256;50.830;12.834;2022-08-18T13:07:03;97152.19;;;27.68;46.33
22181;BME280;11256;50.830;12.834;2022-08-18T13:12:04;97137.41;;;27.81;46.46
22181;BME280;11256;50.830;12.834;2022-08-18T13:17:05;97139.66;;;28.04;47.06
22181;BME280;11256;50.830;12.834;2022-08-18T13:22:06;97155.06;;;28.26;47.85
22181;BME280;11256;50.830;12.834;2022-08-18T13:27:08;97151.66;;;28.59;47.42
22181;BME280;11256;50.830;12.834;2022-08-18T13:32:09;97139.56;;;28.76;47.21
22181;BME280;11256;50.830;12.834;2022-08-18T13:37:10;97159.16;;;29.13;47.61
22181;BME280;11256;50.830;12.834;2022-08-18T13:42:11;97162.88;;;29.40;47.39
22181;BME280;11256;50.830;12.834;2022-08-18T13:47:12;97174.69;;;29.54;47.61
22181;BME280;11256;50.830;12.834;2022-08-18T13:52:12;97168.16;;;29.68;46.96
22181;BME280;11256;50.830;12.834;2022-08-18T13:57:14;97168.09;;;29.75;45.82
22181;BME280;11256;50.830;12.834;2022-08-18T14:02:14;97143.28;;;29.77;45.61
22181;BME280;11256;50.830;12.834;2022-08-18T14:07:14;97141.34;;;29.74;45.11
22181;BME280;11256;50.830;12.834;2022-08-18T14:12:21;97149.31;;;29.75;45.03
22181;BME280;11256;50.830;12.834;2022-08-18T14:17:24;97152.91;;;29.76;44.66
22181;BME280;11256;50.830;12.834;2022-08-18T14:22:25;97152.22;;;29.95;44.83
22181;BME280;11256;50.830;12.834;2022-08-18T14:27:43;97134.06;;;30.10;45.12
22181;BME280;11256;50.830;12.834;2022-08-18T14:32:44;97134.13;;;30.33;44.66
22181;BME280;11256;50.830;12.834;2022-08-18T14:37:44;97138.00;;;30.42;44.60
22181;BME280;11256;50.830;12.834;2022-08-18T14:42:45;97117.50;;;30.49;45.17
22181;BME280;11256;50.830;12.834;2022-08-18T14:47:46;97105.34;;;30.59;44.49
22181;BME280;11256;50.830;12.834;2022-08-18T14:52:47;97106.25;;;30.52;44.36
22181;BME280;11256;50.830;12.834;2022-08-18T14:57:48;97097.22;;;30.68;44.95
22181;BME280;11256;50.830;12.834;2022-08-18T15:02:49;97095.31;;;30.61;44.19
22181;BME280;11256;50.830;12.834;2022-08-18T15:07:51;97102.69;;;30.75;44.68
22181;BME280;11256;50.830;12.834;2022-08-18T15:12:51;97104.88;;;30.87;43.82
22181;BME280;11256;50.830;12.834;2022-08-18T15:17:52;97106.91;;;30.86;43.83
22181;BME280;11256;50.830;12.834;2022-08-18T15:22:52;97096.25;;;30.78;44.13
22181;BME280;11256;50.830;12.834;2022-08-18T15:28:15;97105.06;;;30.76;43.68
22181;BME280;11256;50.830;12.834;2022-08-18T15:33:19;97079.47;;;30.78;43.51
22181;BME280;11256;50.830;12.834;2022-08-18T15:38:22;97071.16;;;30.94;43.33
22181;BME280;11256;50.830;12.834;2022-08-18T15:43:28;97063.41;;;31.01;43.51
22181;BME280;11256;50.830;12.834;2022-08-18T15:48:29;97057.09;;;31.17;42.59
22181;BME280;11256;50.830;12.834;2022-08-18T15:53:29;97056.16;;;31.27;42.74
22181;BME280;11256;50.830;12.834;2022-08-18T15:58:29;97041.19;;;31.33;42.03
22181;BME280;11256;50.830;12.834;2022-08-18T16:03:29;97029.25;;;31.49;42.03
22181;BME280;11256;50.830;12.834;2022-08-18T16:08:30;97025.38;;;31.43;41.87
22181;BME280;11256;50.830;12.834;2022-08-18T16:13:31;97017.09;;;31.36;41.66
22181;BME280;11256;50.830;12.834;2022-08-18T16:18:31;97017.91;;;31.36;41.89
22181;BME280;11256;50.830;12.834;2022-08-18T16:23:31;97002.75;;;31.34;41.91
22181;BME280;11256;50.830;12.834;2022-08-18T16:28:32;97007.34;;;31.44;41.76
22181;BME280;11256;50.830;12.834;2022-08-18T16:33:34;97003.03;;;31.20;42.24
22181;BME280;11256;50.830;12.834;2022-08-18T16:38:36;96981.81;;;31.19;41.67
22181;BME280;11256;50.830;12.834;2022-08-18T16:43:37;96999.63;;;31.09;42.15
22181;BME280;11256;50.830;12.834;2022-08-18T16:48:39;96992.53;;;31.04;42.04
22181;BME280;11256;50.830;12.834;2022-08-18T16:53:39;96984.38;;;30.94;42.15
22181;BME280;11256;50.830;12.834;2022-08-18T16:58:40;96996.09;;;30.85;42.03
22181;BME280;11256;50.830;12.834;2022-08-18T17:03:59;96993.03;;;30.80;42.30
22181;BME280;11256;50.830;12.834;2022-08-18T17:09:06;96985.13;;;30.75;42.18
22181;BME280;11256;50.830;12.834;2022-08-18T17:14:09;96988.06;;;30.68;42.21
22181;BME280;11256;50.830;12.834;2022-08-18T17:19:09;96982.41;;;30.48;42.41
22181;BME280;11256;50.830;12.834;2022-08-18T17:24:09;96987.84;;;30.36;42.37
22181;BME280;11256;50.830;12.834;2022-08-18T17:30:17;96999.78;;;30.36;42.57
22181;BME280;11256;50.830;12.834;2022-08-18T17:34:53;96992.56;;;30.16;42.36
22181;BME280;11256;50.830;12.834;2022-08-18T17:39:56;97003.50;;;30.07;42.48
22181;BME280;11256;50.830;12.834;2022-08-18T17:45:07;97013.59;;;29.97;42.70
22181;BME280;11256;50.830;12.834;2022-08-18T17:50:33;97005.47;;;29.83;43.07
22181;BME280;11256;50.830;12.834;2022-08-18T17:55:59;97006.72;;;29.79;42.82
22181;BME280;11256;50.830;12.834;2022-08-18T18:01:01;97000.59;;;29.61;43.13
22181;BME280;11256;50.830;12.834;2022-08-18T18:06:18;97011.47;;;29.52;43.50
22181;BME280;11256;50.830;12.834;2022-08-18T18:11:32;97021.53;;;29.46;43.62
22181;BME280;11256;50.830;12.834;2022-08-18T18:16:33;97025.28;;;29.32;44.37
22181;BME280;11256;50.830;12.834;2022-08-18T18:21:36;97029.81;;;29.23;44.62
22181;BME280;11256;50.830;12.834;2022-08-18T18:26:40;97038.78;;;29.07;44.80
22181;BME280;11256;50.830;12.834;2022-08-18T18:31:54;97034.06;;;29.01;44.76
22181;BME280;11256;50.830;12.834;2022-08-18T18:36:56;97020.63;;;28.89;45.23
22181;BME280;11256;50.830;12.834;2022-08-18T18:42:18;97010.38;;;28.79;45.13
22181;BME280;11256;50.830;12.834;2022-08-18T18:53:00;97012.34;;;28.45;45.33
22181;BME280;11256;50.830;12.834;2022-08-18T18:58:11;97030.72;;;28.39;45.44
22181;BME280;11256;50.830;12.834;2022-08-18T19:03:21;97049.50;;;28.28;45.66
22181;BME280;11256;50.830;12.834;2022-08-18T19:13:41;97060.41;;;28.08;45.87
22181;BME280;11256;50.830;12.834;2022-08-18T19:18:49;97053.66;;;28.06;46.01
22181;BME280;11256;50.830;12.834;2022-08-18T19:29:08;97035.03;;;27.96;46.74
22181;BME280;11256;50.830;12.834;2022-08-18T19:34:15;97021.19;;;27.82;46.89
22181;BME280;11256;50.830;12.834;2022-08-18T19:39:23;97016.00;;;27.80;47.67
22181;BME280;11256;50.830;12.834;2022-08-18T19:44:35;97010.88;;;27.72;47.77
22181;BME280;11256;50.830;12.834;2022-08-18T19:49:44;97003.78;;;27.64;48.71
22181;BME280;11256;50.830;12.834;2022-08-18T19:55:10;97004.56;;;27.61;50.51
22181;BME280;11256;50.830;12.834;2022-08-18T20:00:18;97015.00;;;27.46;51.49
22181;BME280;11256;50.830;12.834;2022-08-18T20:11:17;96995.66;;;27.15;52.28
22181;BME280;11256;50.830;12.834;2022-08-18T20:16:36;96986.94;;;27.09;52.46
22181;BME280;11256;50.830;12.834;2022-08-18T20:21:45;96971.97;;;26.86;51.04
22181;BME280;11256;50.830;12.834;2022-08-18T20:26:47;96995.03;;;26.76;51.80
22181;BME280;11256;50.830;12.834;2022-08-18T20:31:57;96991.88;;;26.67;52.23
22181;BME280;11256;50.830;12.834;2022-08-18T20:37:00;96985.53;;;26.59;52.56
22181;BME280;11256;50.830;12.834;2022-08-18T20:58:18;96953.06;;;26.04;55.02
22181;BME280;11256;50.830;12.834;2022-08-18T21:03:20;96969.34;;;26.02;54.48
22181;BME280;11256;50.830;12.834;2022-08-18T21:08:25;96971.31;;;25.91;54.42
22181;BME280;11256;50.830;12.834;2022-08-18T21:13:35;96966.13;;;25.82;54.22
22181;BME280;11256;50.830;12.834;2022-08-18T21:18:49;96957.81;;;25.79;54.77
22181;BME280;11256;50.830;12.834;2022-08-18T21:23:52;96952.25;;;25.61;55.97
22181;BME280;11256;50.830;12.834;2022-08-18T21:28:56;96956.22;;;25.57;54.93
22181;BME280;11256;50.830;12.834;2022-08-18T21:33:59;96953.03;;;25.48;55.37
22181;BME280;11256;50.830;12.834;2022-08-18T21:39:07;96948.25;;;25.34;56.19
22181;BME280;11256;50.830;12.834;2022-08-18T21:44:23;96964.13;;;25.30;55.75
22181;BME280;11256;50.830;12.834;2022-08-18T21:49:27;96990.25;;;25.26;55.12
22181;BME280;11256;50.830;12.834;2022-08-18T21:54:29;97006.03;;;25.08;54.85
22181;BME280;11256;50.830;12.834;2022-08-18T21:59:30;97007.16;;;25.00;55.01
22181;BME280;11256;50.830;12.834;2022-08-18T22:04:33;97015.09;;;24.98;54.76
22181;BME280;11256;50.830;12.834;2022-08-18T22:15:41;97032.09;;;24.96;54.82
22181;BME280;11256;50.830;12.834;2022-08-18T22:20:58;97032.91;;;24.97;55.12
22181;BME280;11256;50.830;12.834;2022-08-18T22:26:17;97033.72;;;24.97;54.90
22181;BME280;11256;50.830;12.834;2022-08-18T22:31:20;97032.53;;;24.95;55.67
22181;BME280;11256;50.830;12.834;2022-08-18T22:36:26;97017.03;;;24.94;55.47
22181;BME280;11256;50.830;12.834;2022-08-18T22:41:27;97013.84;;;24.85;55.60
22181;BME280;11256;50.830;12.834;2022-08-18T22:46:27;97012.66;;;24.82;56.09
22181;BME280;11256;50.830;12.834;2022-08-18T22:51:28;97009.81;;;24.72;55.32
22181;BME280;11256;50.830;12.834;2022-08-18T22:56:31;97032.81;;;24.76;55.70
22181;BME280;11256;50.830;12.834;2022-08-18T23:01:32;97045.78;;;24.61;55.70
22181;BME280;11256;50.830;12.834;2022-08-18T23:06:33;97041.81;;;24.59;56.00
22181;BME280;11256;50.830;12.834;2022-08-18T23:11:33;97030.72;;;24.59;55.87
22181;BME280;11256;50.830;12.834;2022-08-18T23:16:34;97027.13;;;24.55;56.50
22181;BME280;11256;50.830;12.834;2022-08-18T23:21:34;97029.47;;;24.53;56.38
22181;BME280;11256;50.830;12.834;2022-08-18T23:26:36;97017.97;;;24.51;56.58
22181;BME280;11256;50.830;12.834;2022-08-18T23:31:38;97022.72;;;24.47;56.76
22181;BME280;11256;50.830;12.834;2022-08-18T23:36:39;97032.97;;;24.43;57.24
22181;BME280;11256;50.830;12.834;2022-08-18T23:41:40;97027.44;;;24.43;57.55
22181;BME280;11256;50.830;12.834;2022-08-18T23:46:40;97027.78;;;24.34;58.96
22181;BME280;11256;50.830;12.834;2022-08-18T23:51:47;97017.06;;;24.29;58.86
22181;BME280;11256;50.830;12.834;2022-08-18T23:56:48;97009.13;;;24.28;58.87
